createdAt,value
2018-12-30T00:00:23.023Z,6.96
2018-12-30T00:02:51.440Z,6.97
2018-12-30T00:05:20.358Z,6.97
2018-12-30T00:07:49.056Z,6.98
2018-12-30T00:10:17.871Z,6.99
2018-12-30T00:12:46.291Z,7.01
2018-12-30T00:15:15.117Z,7.02
2018-12-30T00:17:43.532Z,7.04
2018-12-30T00:20:11.968Z,7.09
2018-12-30T00:22:40.380Z,7.10
2018-12-30T00:25:08.895Z,7.13
2018-12-30T00:27:37.312Z,7.16
2018-12-30T00:30:07.963Z,7.16
2018-12-30T00:32:36.386Z,7.17
2018-12-30T00:35:05.464Z,7.19
2018-12-30T00:37:33.885Z,7.22
2018-12-30T00:40:02.332Z,7.25
2018-12-30T00:42:30.753Z,7.24
2018-12-30T00:44:59.265Z,7.27
2018-12-30T00:47:27.682Z,7.30
2018-12-30T00:49:56.122Z,7.36
2018-12-30T00:52:24.539Z,7.39
2018-12-30T00:54:52.982Z,7.42
2018-12-30T00:57:21.401Z,7.41
2018-12-30T00:59:49.850Z,7.45
2018-12-30T01:02:18.275Z,7.47
2018-12-30T01:04:46.717Z,7.51
2018-12-30T01:07:15.283Z,7.51
2018-12-30T01:09:43.719Z,7.51
2018-12-30T01:12:12.622Z,7.54
2018-12-30T01:14:41.064Z,7.55
2018-12-30T01:17:09.483Z,7.55
2018-12-30T01:19:37.935Z,7.57
2018-12-30T01:22:06.352Z,7.59
2018-12-30T01:24:34.795Z,7.62
2018-12-30T01:27:03.590Z,7.62
2018-12-30T01:29:32.039Z,7.62
2018-12-30T01:32:00.448Z,7.61
2018-12-30T01:34:28.915Z,7.60
2018-12-30T01:36:57.401Z,7.57
2018-12-30T01:39:25.816Z,7.58
2018-12-30T01:41:54.258Z,7.56
2018-12-30T01:44:22.676Z,7.56
2018-12-30T01:46:51.123Z,7.57
2018-12-30T01:49:19.541Z,7.55
2018-12-30T01:51:47.995Z,7.56
2018-12-30T01:54:16.691Z,7.55
2018-12-30T01:56:45.135Z,7.57
2018-12-30T01:59:13.548Z,7.58
2018-12-30T02:01:42.003Z,7.59
2018-12-30T02:04:10.414Z,7.61
2018-12-30T02:06:38.873Z,7.61
2018-12-30T02:09:07.364Z,7.60
2018-12-30T02:11:35.800Z,7.59
2018-12-30T02:14:04.210Z,7.58
2018-12-30T02:16:32.657Z,7.58
2018-12-30T02:19:01.079Z,7.55
2018-12-30T02:21:29.518Z,7.51
2018-12-30T02:23:57.936Z,7.50
2018-12-30T02:26:26.384Z,7.47
2018-12-30T02:28:54.801Z,7.50
2018-12-30T02:31:23.241Z,7.46
2018-12-30T02:33:51.657Z,7.43
2018-12-30T02:36:20.169Z,7.37
2018-12-30T02:38:48.590Z,7.22
2018-12-30T02:41:17.029Z,7.09
2018-12-30T02:43:45.445Z,7.07
2018-12-30T02:46:14.064Z,6.99
2018-12-30T02:48:42.480Z,6.88
2018-12-30T02:51:10.932Z,6.88
2018-12-30T02:53:39.354Z,6.75
2018-12-30T02:56:07.803Z,6.75
2018-12-30T02:58:37.101Z,6.71
2018-12-30T03:01:05.542Z,6.71
2018-12-30T03:03:33.969Z,6.70
2018-12-30T03:06:02.419Z,6.81
2018-12-30T03:08:30.841Z,6.85
2018-12-30T03:10:59.567Z,6.94
2018-12-30T03:13:27.991Z,6.94
2018-12-30T03:15:56.507Z,6.91
2018-12-30T03:18:24.924Z,6.90
2018-12-30T03:20:53.344Z,6.93
2018-12-30T03:23:21.796Z,6.86
2018-12-30T03:25:50.212Z,6.83
2018-12-30T03:28:18.655Z,6.85
2018-12-30T03:30:47.075Z,6.81
2018-12-30T03:33:15.518Z,6.88
2018-12-30T03:35:43.941Z,6.85
2018-12-30T03:38:12.392Z,6.80
2018-12-30T03:40:40.811Z,6.82
2018-12-30T03:43:09.263Z,6.75
2018-12-30T03:45:37.679Z,6.75
2018-12-30T03:48:06.119Z,6.75
2018-12-30T03:50:34.537Z,6.68
2018-12-30T03:53:02.978Z,6.67
2018-12-30T03:55:31.407Z,6.61
2018-12-30T03:57:59.847Z,6.63
2018-12-30T04:00:28.265Z,6.63
2018-12-30T04:02:56.715Z,6.63
2018-12-30T04:05:25.122Z,6.58
2018-12-30T04:07:53.559Z,6.57
2018-12-30T04:10:21.995Z,6.46
2018-12-30T04:12:50.429Z,6.38
2018-12-30T04:15:18.842Z,6.34
2018-12-30T04:17:47.289Z,6.12
2018-12-30T04:20:15.710Z,5.96
2018-12-30T04:22:44.156Z,5.86
2018-12-30T04:25:12.572Z,5.86
2018-12-30T04:27:41.013Z,5.66
2018-12-30T04:30:09.440Z,5.43
2018-12-30T04:32:37.884Z,5.45
2018-12-30T04:35:06.380Z,5.45
2018-12-30T04:37:34.822Z,5.39
2018-12-30T04:40:03.792Z,5.24
2018-12-30T04:42:32.233Z,5.19
2018-12-30T04:45:00.651Z,5.15
2018-12-30T04:47:29.098Z,5.04
2018-12-30T04:49:57.519Z,4.99
2018-12-30T04:52:26.277Z,4.93
2018-12-30T04:54:54.779Z,4.98
2018-12-30T04:57:23.220Z,4.93
2018-12-30T04:59:51.649Z,4.93
2018-12-30T05:02:20.099Z,4.85
2018-12-30T05:04:48.518Z,4.84
2018-12-30T05:07:16.935Z,4.84
2018-12-30T05:09:45.374Z,4.82
2018-12-30T05:12:13.791Z,4.82
2018-12-30T05:14:42.250Z,4.73
2018-12-30T05:17:10.658Z,4.75
2018-12-30T05:19:39.106Z,4.75
2018-12-30T05:22:07.603Z,4.68
2018-12-30T05:24:36.044Z,4.72
2018-12-30T05:27:04.455Z,4.70
2018-12-30T05:29:32.902Z,4.67
2018-12-30T05:32:01.388Z,4.57
2018-12-30T05:34:29.836Z,4.57
2018-12-30T05:36:58.256Z,4.53
2018-12-30T05:39:26.700Z,4.53
2018-12-30T05:41:55.119Z,4.62
2018-12-30T05:44:23.569Z,4.62
2018-12-30T05:46:51.981Z,4.58
2018-12-30T05:49:20.427Z,4.59
2018-12-30T05:51:48.841Z,4.66
2018-12-30T05:54:17.287Z,4.66
2018-12-30T05:56:45.701Z,4.66
2018-12-30T05:59:14.166Z,4.53
2018-12-30T06:01:42.582Z,4.53
2018-12-30T06:04:11.025Z,4.54
2018-12-30T06:06:39.518Z,4.44
2018-12-30T06:09:07.967Z,4.54
2018-12-30T06:11:36.382Z,4.54
2018-12-30T06:14:04.831Z,4.52
2018-12-30T06:16:33.240Z,4.66
2018-12-30T06:19:01.688Z,4.73
2018-12-30T06:21:30.108Z,4.70
2018-12-30T06:23:58.545Z,4.62
2018-12-30T06:26:26.980Z,4.71
2018-12-30T06:28:55.428Z,4.73
2018-12-30T06:31:23.844Z,4.73
2018-12-30T06:33:52.255Z,4.67
2018-12-30T06:36:20.704Z,4.59
2018-12-30T06:38:49.118Z,4.71
2018-12-30T06:41:17.571Z,4.71
2018-12-30T06:43:46.000Z,4.73
2018-12-30T06:46:14.438Z,4.76
2018-12-30T06:48:42.940Z,4.73
2018-12-30T06:51:11.385Z,4.73
2018-12-30T06:53:39.805Z,4.83
2018-12-30T06:56:08.248Z,4.83
2018-12-30T06:58:36.672Z,4.95
2018-12-30T07:01:05.116Z,4.95
2018-12-30T07:03:33.534Z,4.95
2018-12-30T07:06:01.980Z,4.92
2018-12-30T07:08:30.400Z,4.99
2018-12-30T07:10:58.847Z,4.99
2018-12-30T07:13:27.276Z,5.15
2018-12-30T07:15:55.712Z,5.15
2018-12-30T07:18:24.130Z,5.18
2018-12-30T07:20:52.576Z,5.25
2018-12-30T07:23:20.998Z,5.41
2018-12-30T07:25:49.440Z,5.44
2018-12-30T07:28:17.856Z,5.44
2018-12-30T07:30:46.308Z,5.39
2018-12-30T07:33:14.723Z,5.38
2018-12-30T07:35:43.162Z,5.31
2018-12-30T07:38:11.578Z,5.33
2018-12-30T07:40:40.102Z,5.30
2018-12-30T07:43:08.522Z,5.30
2018-12-30T07:45:36.966Z,5.33
2018-12-30T07:48:05.383Z,5.41
2018-12-30T07:50:33.900Z,5.53
2018-12-30T07:53:02.322Z,5.54
2018-12-30T07:55:30.760Z,5.75
2018-12-30T07:57:59.175Z,5.84
2018-12-30T08:00:27.623Z,5.92
2018-12-30T08:02:56.043Z,5.95
2018-12-30T08:05:24.483Z,5.94
2018-12-30T08:07:52.901Z,5.91
2018-12-30T08:10:21.342Z,5.91
2018-12-30T08:12:49.760Z,6.04
2018-12-30T08:15:18.195Z,6.09
2018-12-30T08:17:46.606Z,6.15
2018-12-30T08:20:15.025Z,6.16
2018-12-30T08:22:43.469Z,6.16
2018-12-30T08:25:11.883Z,6.22
2018-12-30T08:27:40.327Z,6.26
2018-12-30T08:30:08.816Z,6.25
2018-12-30T08:32:37.264Z,6.26
2018-12-30T08:35:05.759Z,6.42
2018-12-30T08:37:34.203Z,6.42
2018-12-30T08:40:02.624Z,6.47
2018-12-30T08:42:31.063Z,6.46
2018-12-30T08:44:59.480Z,6.47
2018-12-30T08:47:27.916Z,6.46
2018-12-30T08:49:56.344Z,6.48
2018-12-30T08:52:24.789Z,6.49
2018-12-30T08:54:53.198Z,6.58
2018-12-30T08:57:21.645Z,6.62
2018-12-30T08:59:50.135Z,6.61
2018-12-30T09:02:18.588Z,6.64
2018-12-30T09:04:47.010Z,6.66
2018-12-30T09:07:15.455Z,6.68
2018-12-30T09:09:43.874Z,6.73
2018-12-30T09:12:12.317Z,6.78
2018-12-30T09:14:40.736Z,6.82
2018-12-30T09:17:09.186Z,6.87
2018-12-30T09:19:37.602Z,6.85
2018-12-30T09:22:06.049Z,6.83
2018-12-30T09:24:34.461Z,6.86
2018-12-30T09:27:02.905Z,6.93
2018-12-30T09:29:31.322Z,6.97
2018-12-30T09:31:59.764Z,6.98
2018-12-30T09:34:28.178Z,7.00
2018-12-30T09:36:56.626Z,7.07
2018-12-30T09:39:25.042Z,7.09
2018-12-30T09:41:53.489Z,7.13
2018-12-30T09:44:21.907Z,7.09
2018-12-30T09:46:50.426Z,6.99
2018-12-30T09:49:18.847Z,6.98
2018-12-30T09:51:47.292Z,6.97
2018-12-30T09:54:15.710Z,7.11
2018-12-30T09:56:44.200Z,7.11
2018-12-30T09:59:12.648Z,7.08
2018-12-30T10:01:41.059Z,7.11
2018-12-30T10:04:09.500Z,7.21
2018-12-30T10:06:37.925Z,7.27
2018-12-30T10:09:07.606Z,7.23
2018-12-30T10:11:37.767Z,7.13
2018-12-30T10:14:06.346Z,7.21
2018-12-30T10:16:34.773Z,7.31
2018-12-30T10:19:03.216Z,7.34
2018-12-30T10:21:31.635Z,7.34
2018-12-30T10:24:00.084Z,7.36
2018-12-30T10:26:28.494Z,7.38
2018-12-30T10:28:56.940Z,7.46
2018-12-30T10:31:25.347Z,7.49
2018-12-30T10:33:53.791Z,7.52
2018-12-30T10:36:22.206Z,7.44
2018-12-30T10:38:50.639Z,7.39
2018-12-30T10:41:19.063Z,7.39
2018-12-30T10:43:47.506Z,7.42
2018-12-30T10:46:15.929Z,7.49
2018-12-30T10:48:44.368Z,7.64
2018-12-30T10:51:12.789Z,7.63
2018-12-30T10:53:41.238Z,7.73
2018-12-30T10:56:09.652Z,7.70
2018-12-30T10:58:38.095Z,7.67
2018-12-30T11:01:06.519Z,7.62
2018-12-30T11:03:34.966Z,7.59
2018-12-30T11:06:03.380Z,7.54
2018-12-30T11:08:31.827Z,7.59
2018-12-30T11:11:00.242Z,7.74
2018-12-30T11:13:28.681Z,7.70
2018-12-30T11:15:57.098Z,7.59
2018-12-30T11:18:25.539Z,7.64
2018-12-30T11:20:53.956Z,7.76
2018-12-30T11:23:22.389Z,7.73
2018-12-30T11:25:50.874Z,7.71
2018-12-30T11:28:19.325Z,7.75
2018-12-30T11:30:47.743Z,7.80
2018-12-30T11:33:16.195Z,7.94
2018-12-30T11:35:44.610Z,7.83
2018-12-30T11:38:13.091Z,7.79
2018-12-30T11:40:41.634Z,7.81
2018-12-30T11:43:10.051Z,7.88
2018-12-30T11:45:38.488Z,7.91
2018-12-30T11:48:06.909Z,7.88
2018-12-30T11:50:35.351Z,7.87
2018-12-30T11:53:03.765Z,7.85
2018-12-30T11:55:32.208Z,7.79
2018-12-30T11:58:00.619Z,7.82
2018-12-30T12:00:29.060Z,7.93
2018-12-30T12:02:57.480Z,7.97
2018-12-30T12:05:25.923Z,7.96
2018-12-30T12:07:54.340Z,7.86
2018-12-30T12:10:22.785Z,7.81
2018-12-30T12:12:51.203Z,7.81
2018-12-30T12:15:19.646Z,7.85
2018-12-30T12:17:48.061Z,7.79
2018-12-30T12:20:16.514Z,7.81
2018-12-30T12:22:44.921Z,7.84
2018-12-30T12:25:13.366Z,7.73
2018-12-30T12:27:41.791Z,7.77
2018-12-30T12:30:10.223Z,7.84
2018-12-30T12:32:38.710Z,7.78
2018-12-30T12:35:07.158Z,7.82
2018-12-30T12:37:35.576Z,7.82
2018-12-30T12:40:04.659Z,7.91
2018-12-30T12:42:33.141Z,7.92
2018-12-30T12:45:01.589Z,7.95
2018-12-30T12:47:30.006Z,7.96
2018-12-30T12:49:58.459Z,8.00
2018-12-30T12:52:26.874Z,8.01
2018-12-30T12:54:55.323Z,8.00
2018-12-30T12:57:23.743Z,8.02
2018-12-30T12:59:52.180Z,7.98
2018-12-30T13:02:20.604Z,7.94
2018-12-30T13:04:49.054Z,7.94
2018-12-30T13:07:17.627Z,7.86
2018-12-30T13:09:46.074Z,7.78
2018-12-30T13:12:14.490Z,7.83
2018-12-30T13:14:42.910Z,7.88
2018-12-30T13:17:11.357Z,7.89
2018-12-30T13:19:39.817Z,7.80
2018-12-30T13:22:08.300Z,7.70
2018-12-30T13:24:40.052Z,7.68
2018-12-30T13:27:06.887Z,7.67
2018-12-30T13:29:35.302Z,7.66
2018-12-30T13:32:03.750Z,7.70
2018-12-30T13:34:32.162Z,7.73
2018-12-30T13:37:00.600Z,7.64
2018-12-30T13:39:29.016Z,7.67
2018-12-30T13:41:57.449Z,7.68
2018-12-30T13:44:25.869Z,7.60
2018-12-30T13:46:54.313Z,7.53
2018-12-30T13:49:22.726Z,7.45
2018-12-30T13:51:51.167Z,7.52
2018-12-30T13:54:20.514Z,7.46
2018-12-30T13:56:48.941Z,7.45
2018-12-30T13:59:17.362Z,7.40
2018-12-30T14:01:45.808Z,7.33
2018-12-30T14:04:14.228Z,7.28
2018-12-30T14:06:42.666Z,7.25
2018-12-30T14:09:11.101Z,7.22
2018-12-30T14:11:39.518Z,7.19
2018-12-30T14:14:07.936Z,7.17
2018-12-30T14:16:36.381Z,7.23
2018-12-30T14:19:04.800Z,7.23
2018-12-30T14:21:33.247Z,7.17
2018-12-30T14:24:01.677Z,7.10
2018-12-30T14:26:30.111Z,7.03
2018-12-30T14:28:58.525Z,7.01
2018-12-30T14:31:27.013Z,6.98
2018-12-30T14:33:55.429Z,6.96
2018-12-30T14:36:23.844Z,6.93
2018-12-30T14:38:52.282Z,6.90
2018-12-30T14:41:20.709Z,6.84
2018-12-30T14:43:49.152Z,6.83
2018-12-30T14:46:17.568Z,6.88
2018-12-30T14:48:46.011Z,6.90
2018-12-30T14:51:14.423Z,6.88
2018-12-30T14:53:42.861Z,6.83
2018-12-30T14:56:11.285Z,6.78
2018-12-30T14:58:39.734Z,6.82
2018-12-30T15:01:14.627Z,6.78
2018-12-30T15:03:38.312Z,6.79
2018-12-30T15:06:06.732Z,6.80
2018-12-30T15:08:35.590Z,6.84
2018-12-30T15:11:04.016Z,6.83
2018-12-30T15:13:32.517Z,6.78
2018-12-30T15:16:00.937Z,6.74
2018-12-30T15:18:29.383Z,6.64
2018-12-30T15:20:57.800Z,6.56
2018-12-30T15:23:26.279Z,6.55
2018-12-30T15:25:54.764Z,6.48
2018-12-30T15:28:23.179Z,6.53
2018-12-30T15:30:51.616Z,6.50
2018-12-30T15:33:20.035Z,6.56
2018-12-30T15:35:48.480Z,6.51
2018-12-30T15:38:16.892Z,6.44
2018-12-30T15:40:45.341Z,6.45
2018-12-30T15:43:13.755Z,6.50
2018-12-30T15:45:42.199Z,6.51
2018-12-30T15:48:10.687Z,6.53
2018-12-30T15:50:39.136Z,6.55
2018-12-30T15:53:07.552Z,6.59
2018-12-30T15:55:35.998Z,6.53
2018-12-30T15:58:04.489Z,6.43
2018-12-30T16:00:32.943Z,6.48
2018-12-30T16:03:01.359Z,6.51
2018-12-30T16:05:29.801Z,6.49
2018-12-30T16:07:58.233Z,6.52
2018-12-30T16:10:26.653Z,6.55
2018-12-30T16:12:55.069Z,6.55
2018-12-30T16:15:23.511Z,6.47
2018-12-30T16:17:51.931Z,6.41
2018-12-30T16:20:20.389Z,6.37
2018-12-30T16:22:48.885Z,6.33
2018-12-30T16:25:17.302Z,6.26
2018-12-30T16:27:45.747Z,6.26
2018-12-30T16:30:14.166Z,6.17
2018-12-30T16:32:42.610Z,6.13
2018-12-30T16:35:11.027Z,6.14
2018-12-30T16:37:39.472Z,6.02
2018-12-30T16:40:07.889Z,6.08
2018-12-30T16:42:36.336Z,5.90
2018-12-30T16:45:05.699Z,5.86
2018-12-30T16:47:41.564Z,5.78
2018-12-30T16:50:06.233Z,5.68
2018-12-30T16:52:34.674Z,5.68
2018-12-30T16:55:03.093Z,5.64
2018-12-30T16:57:31.617Z,5.59
2018-12-30T17:00:00.174Z,5.59
2018-12-30T17:02:28.625Z,5.61
2018-12-30T17:04:57.044Z,5.61
2018-12-30T17:07:25.490Z,5.47
2018-12-30T17:09:53.914Z,5.43
2018-12-30T17:12:22.357Z,5.38
2018-12-30T17:14:50.776Z,5.38
2018-12-30T17:17:19.228Z,5.15
2018-12-30T17:19:47.639Z,5.15
2018-12-30T17:22:16.098Z,5.21
2018-12-30T17:24:44.528Z,5.08
2018-12-30T17:27:12.949Z,5.04
2018-12-30T17:29:41.393Z,5.04
2018-12-30T17:32:09.810Z,5.00
2018-12-30T17:34:38.260Z,4.79
2018-12-30T17:37:06.675Z,4.73
2018-12-30T17:39:35.121Z,4.73
2018-12-30T17:42:03.543Z,4.65
2018-12-30T17:44:32.066Z,4.79
2018-12-30T17:47:00.490Z,4.78
2018-12-30T17:49:28.934Z,4.78
2018-12-30T17:51:57.444Z,4.90
2018-12-30T17:54:25.880Z,4.83
2018-12-30T17:56:54.300Z,4.81
2018-12-30T17:59:22.744Z,4.64
2018-12-30T18:01:51.250Z,4.69
2018-12-30T18:04:19.688Z,4.58
2018-12-30T18:06:48.113Z,4.65
2018-12-30T18:09:16.555Z,4.65
2018-12-30T18:11:44.968Z,4.53
2018-12-30T18:14:13.415Z,4.42
2018-12-30T18:16:41.832Z,4.57
2018-12-30T18:19:10.277Z,4.55
2018-12-30T18:21:38.698Z,4.55
2018-12-30T18:24:07.148Z,4.51
2018-12-30T18:26:37.874Z,4.33
2018-12-30T18:29:05.733Z,4.19
2018-12-30T18:31:34.177Z,4.19
2018-12-30T18:34:02.597Z,4.08
2018-12-30T18:36:31.053Z,4.11
2018-12-30T18:38:59.461Z,4.05
2018-12-30T18:41:27.919Z,3.93
2018-12-30T18:43:56.340Z,3.83
2018-12-30T18:46:24.799Z,3.76
2018-12-30T18:48:53.219Z,3.76
2018-12-30T18:51:21.667Z,3.71
2018-12-30T18:53:50.109Z,3.66
2018-12-30T18:56:18.562Z,3.56
2018-12-30T18:58:46.982Z,3.58
2018-12-30T19:01:15.442Z,3.63
2018-12-30T19:03:43.859Z,3.63
2018-12-30T19:06:12.303Z,3.69
2018-12-30T19:08:40.720Z,3.73
2018-12-30T19:11:09.167Z,3.79
2018-12-30T19:13:37.579Z,3.81
2018-12-30T19:16:06.047Z,3.80
2018-12-30T19:18:34.463Z,3.74
2018-12-30T19:21:02.912Z,3.77
2018-12-30T19:23:31.339Z,3.76
2018-12-30T19:26:01.163Z,3.79
2018-12-30T19:28:29.893Z,3.82
2018-12-30T19:30:58.341Z,3.84
2018-12-30T19:33:26.762Z,3.84
2018-12-30T19:35:55.208Z,3.97
2018-12-30T19:38:23.624Z,3.97
2018-12-30T19:40:52.068Z,4.01
2018-12-30T19:43:20.492Z,4.10
2018-12-30T19:45:48.944Z,4.11
2018-12-30T19:48:17.359Z,4.11
2018-12-30T19:50:45.803Z,4.10
2018-12-30T19:53:14.243Z,4.16
2018-12-30T19:55:42.677Z,4.15
2018-12-30T19:58:11.097Z,4.15
2018-12-30T20:00:39.520Z,4.17
2018-12-30T20:03:08.037Z,4.13
2018-12-30T20:05:36.528Z,4.13
2018-12-30T20:08:04.983Z,4.08
2018-12-30T20:10:33.401Z,4.02
2018-12-30T20:13:08.829Z,3.92
2018-12-30T20:15:31.996Z,3.85
2018-12-30T20:18:00.434Z,3.85
2018-12-30T20:20:28.858Z,3.86
2018-12-30T20:22:57.303Z,3.70
2018-12-30T20:25:25.719Z,3.70
2018-12-30T20:27:54.163Z,3.67
2018-12-30T20:30:22.591Z,3.54
2018-12-30T20:32:51.038Z,3.54
2018-12-30T20:35:19.451Z,3.28
2018-12-30T20:37:47.903Z,3.28
2018-12-30T20:40:16.390Z,3.23
2018-12-30T20:42:44.835Z,3.25
2018-12-30T20:45:13.253Z,3.27
2018-12-30T20:47:41.700Z,3.24
2018-12-30T20:50:10.115Z,3.21
2018-12-30T20:52:38.564Z,3.14
2018-12-30T20:55:06.986Z,3.13
2018-12-30T20:57:35.431Z,3.13
2018-12-30T21:00:05.196Z,3.08
2018-12-30T21:02:33.710Z,3.08
2018-12-30T21:05:02.138Z,3.00
2018-12-30T21:07:30.656Z,2.98
2018-12-30T21:09:59.081Z,2.96
2018-12-30T21:12:27.540Z,2.87
2018-12-30T21:14:55.960Z,2.83
2018-12-30T21:17:24.416Z,2.84
2018-12-30T21:19:52.832Z,2.86
2018-12-30T21:22:21.289Z,2.81
2018-12-30T21:24:49.702Z,2.85
2018-12-30T21:27:18.157Z,2.89
2018-12-30T21:29:46.574Z,2.94
2018-12-30T21:32:15.025Z,2.98
2018-12-30T21:34:44.938Z,3.03
2018-12-30T21:37:13.575Z,3.11
2018-12-30T21:39:41.994Z,3.12
2018-12-30T21:42:10.437Z,3.22
2018-12-30T21:44:38.882Z,3.33
2018-12-30T21:47:07.306Z,3.44
2018-12-30T21:49:35.760Z,3.70
2018-12-30T21:52:04.179Z,3.70
2018-12-30T21:54:32.629Z,3.81
2018-12-30T21:57:01.052Z,3.96
2018-12-30T21:59:29.505Z,4.11
2018-12-30T22:01:57.923Z,4.15
2018-12-30T22:04:26.373Z,4.19
2018-12-30T22:06:54.809Z,4.12
2018-12-30T22:09:23.246Z,4.12
2018-12-30T22:11:51.677Z,4.14
2018-12-30T22:14:20.128Z,4.24
2018-12-30T22:16:48.542Z,4.26
2018-12-30T22:19:16.988Z,4.21
2018-12-30T22:21:45.404Z,4.21
2018-12-30T22:24:13.858Z,4.29
2018-12-30T22:26:42.277Z,4.29
2018-12-30T22:29:10.792Z,4.20
2018-12-30T22:31:39.217Z,4.16
2018-12-30T22:34:07.663Z,4.16
2018-12-30T22:36:36.084Z,4.19
2018-12-30T22:39:06.373Z,4.20
2018-12-30T22:41:34.794Z,4.20
2018-12-30T22:44:03.240Z,4.32
2018-12-30T22:46:31.661Z,4.32
2018-12-30T22:49:00.126Z,4.39
2018-12-30T22:51:28.544Z,4.57
2018-12-30T22:53:56.993Z,4.63
2018-12-30T22:56:25.411Z,4.63
2018-12-30T22:58:53.867Z,4.62
2018-12-30T23:01:22.413Z,4.62
2018-12-30T23:03:50.900Z,4.55
2018-12-30T23:06:19.322Z,4.55
2018-12-30T23:08:47.742Z,4.41
2018-12-30T23:11:16.193Z,4.44
2018-12-30T23:13:44.617Z,4.46
2018-12-30T23:16:13.063Z,4.46
2018-12-30T23:18:41.491Z,4.48
2018-12-30T23:21:09.943Z,4.42
2018-12-30T23:23:38.379Z,4.42
2018-12-30T23:26:06.907Z,4.46
2018-12-30T23:28:35.331Z,4.54
2018-12-30T23:31:03.784Z,4.54
2018-12-30T23:33:32.200Z,4.48
2018-12-30T23:36:00.644Z,4.51
2018-12-30T23:38:29.068Z,4.55
2018-12-30T23:40:57.515Z,4.55
2018-12-30T23:43:25.931Z,4.60
2018-12-30T23:45:54.376Z,4.48
2018-12-30T23:48:22.798Z,4.48
2018-12-30T23:50:51.241Z,4.51
2018-12-30T23:53:19.663Z,4.40
2018-12-30T23:55:48.108Z,4.40
2018-12-30T23:58:16.544Z,4.33
